-17.56C
ясно
ясно
Дата и времяТемператураДавление, мм рт.ст.Влажность, %Осадки
МинимумМаксимум
14.04.2024 20:00-20.45C-17.56C75990ясно
14.04.2024 23:00-24.69C-19.94C75992небольшая облачность
15.04.2024 02:00-27.78C-24.37C75995небольшая облачность
15.04.2024 05:00-29.23C-29.23C76199переменная облачность
15.04.2024 08:00-20.54C-20.54C76094пасмурно
15.04.2024 11:00-15.6C-15.6C76084пасмурно
15.04.2024 14:00-11.85C-11.85C75987облачно с прояснениями
15.04.2024 17:00-9.36C-9.36C75892облачно с прояснениями
15.04.2024 20:00-11.13C-11.13C75798пасмурно
15.04.2024 23:00-7.35C-7.35C75697небольшой снег
16.04.2024 02:00-3.12C-3.12C75497небольшой снег
16.04.2024 05:00-2.61C-2.61C75395небольшой снег
16.04.2024 08:00-2.68C-2.68C75396пасмурно
16.04.2024 11:00-0.68C-0.68C75393пасмурно
16.04.2024 14:00-0.02C-0.02C75399пасмурно
16.04.2024 17:000.37C0.37C75295пасмурно
16.04.2024 20:000.28C0.28C75298пасмурно
16.04.2024 23:000.67C0.67C752100небольшой дождь
17.04.2024 02:000.99C0.99C750100небольшой дождь
17.04.2024 05:000.49C0.49C75099небольшой дождь
17.04.2024 08:00-2.03C-2.03C74998снег
17.04.2024 11:00-4.65C-4.65C74897снег
17.04.2024 14:00-3.93C-3.93C74896снег
17.04.2024 17:00-2.95C-2.95C74896снег
17.04.2024 20:00-5.91C-5.91C74897небольшой снег
17.04.2024 23:00-10.31C-10.31C748100пасмурно
18.04.2024 02:00-10.43C-10.43C747100пасмурно
18.04.2024 05:00-6.14C-6.14C74797пасмурно
18.04.2024 08:00-5.45C-5.45C74695небольшой снег
18.04.2024 11:00-4.63C-4.63C74691небольшой снег
18.04.2024 14:00-4.93C-4.93C74788пасмурно
18.04.2024 17:00-5.92C-5.92C75089облачно с прояснениями
18.04.2024 20:00-7.93C-7.93C75395небольшой снег
18.04.2024 23:00-12.38C-12.38C75597небольшой снег
19.04.2024 02:00-17.48C-17.48C75896облачно с прояснениями
19.04.2024 05:00-19.09C-19.09C76095переменная облачность
19.04.2024 08:00-14.23C-14.23C76286небольшая облачность
19.04.2024 11:00-10.37C-10.37C76379небольшая облачность
19.04.2024 14:00-8C-8C76476облачно с прояснениями
19.04.2024 17:00-7.36C-7.36C76583облачно с прояснениями
Дата и время наблюдения: 14.04.2024 19:23:01